sensor_id;sensor_type;location;lat;lon;timestamp;P1;durP1;ratioP1;P2;durP2;ratioP2
16737;SDS011;17906;47.684;10.806;2023-01-29T00:00:52;23.33;;;8.53;;
16737;SDS011;17906;47.684;10.806;2023-01-29T00:03:18;25.77;;;7.70;;
16737;SDS011;17906;47.684;10.806;2023-01-29T00:05:45;22.90;;;8.07;;
16737;SDS011;17906;47.684;10.806;2023-01-29T00:08:12;24.97;;;8.27;;
16737;SDS011;17906;47.684;10.806;2023-01-29T00:10:39;19.27;;;7.60;;
16737;SDS011;17906;47.684;10.806;2023-01-29T00:13:06;20.80;;;8.33;;
16737;SDS011;17906;47.684;10.806;2023-01-29T00:15:32;31.13;;;9.03;;
16737;SDS011;17906;47.684;10.806;2023-01-29T00:18:00;26.63;;;8.37;;
16737;SDS011;17906;47.684;10.806;2023-01-29T00:20:27;24.43;;;9.60;;
16737;SDS011;17906;47.684;10.806;2023-01-29T00:22:53;23.07;;;8.20;;
16737;SDS011;17906;47.684;10.806;2023-01-29T00:25:20;20.53;;;7.97;;
16737;SDS011;17906;47.684;10.806;2023-01-29T00:27:47;17.13;;;6.67;;
16737;SDS011;17906;47.684;10.806;2023-01-29T00:30:13;18.23;;;6.43;;
16737;SDS011;17906;47.684;10.806;2023-01-29T00:32:43;19.83;;;6.87;;
16737;SDS011;17906;47.684;10.806;2023-01-29T00:35:11;18.53;;;6.43;;
16737;SDS011;17906;47.684;10.806;2023-01-29T00:37:37;20.20;;;6.37;;
16737;SDS011;17906;47.684;10.806;2023-01-29T00:40:04;16.17;;;6.70;;
16737;SDS011;17906;47.684;10.806;2023-01-29T00:42:31;19.97;;;7.40;;
16737;SDS011;17906;47.684;10.806;2023-01-29T00:45:16;23.30;;;7.40;;
16737;SDS011;17906;47.684;10.806;2023-01-29T00:47:42;21.13;;;7.60;;
16737;SDS011;17906;47.684;10.806;2023-01-29T00:50:11;26.93;;;8.23;;
16737;SDS011;17906;47.684;10.806;2023-01-29T00:52:38;26.20;;;8.87;;
16737;SDS011;17906;47.684;10.806;2023-01-29T00:55:06;28.30;;;8.90;;
16737;SDS011;17906;47.684;10.806;2023-01-29T00:57:34;33.50;;;10.57;;
16737;SDS011;17906;47.684;10.806;2023-01-29T01:00:02;36.97;;;9.60;;
16737;SDS011;17906;47.684;10.806;2023-01-29T01:02:30;22.53;;;7.23;;
16737;SDS011;17906;47.684;10.806;2023-01-29T01:05:16;27.97;;;8.90;;
16737;SDS011;17906;47.684;10.806;2023-01-29T01:07:43;25.83;;;9.40;;
16737;SDS011;17906;47.684;10.806;2023-01-29T01:10:12;23.93;;;9.03;;
16737;SDS011;17906;47.684;10.806;2023-01-29T01:12:45;27.23;;;8.80;;
16737;SDS011;17906;47.684;10.806;2023-01-29T01:15:12;30.53;;;10.87;;
16737;SDS011;17906;47.684;10.806;2023-01-29T01:17:38;27.20;;;8.97;;
16737;SDS011;17906;47.684;10.806;2023-01-29T01:20:05;25.67;;;8.97;;
16737;SDS011;17906;47.684;10.806;2023-01-29T01:22:34;23.30;;;8.30;;
16737;SDS011;17906;47.684;10.806;2023-01-29T01:25:00;20.50;;;8.53;;
16737;SDS011;17906;47.684;10.806;2023-01-29T01:27:27;19.13;;;8.07;;
16737;SDS011;17906;47.684;10.806;2023-01-29T01:29:54;20.90;;;8.13;;
16737;SDS011;17906;47.684;10.806;2023-01-29T01:32:20;22.03;;;8.80;;
16737;SDS011;17906;47.684;10.806;2023-01-29T01:34:47;29.93;;;9.40;;
16737;SDS011;17906;47.684;10.806;2023-01-29T01:37:13;25.67;;;9.33;;
16737;SDS011;17906;47.684;10.806;2023-01-29T01:39:41;19.80;;;8.17;;
16737;SDS011;17906;47.684;10.806;2023-01-29T01:42:13;24.27;;;9.07;;
16737;SDS011;17906;47.684;10.806;2023-01-29T01:44:50;19.87;;;7.57;;
16737;SDS011;17906;47.684;10.806;2023-01-29T01:47:19;19.53;;;7.20;;
16737;SDS011;17906;47.684;10.806;2023-01-29T01:49:50;18.43;;;7.07;;
16737;SDS011;17906;47.684;10.806;2023-01-29T01:52:18;19.43;;;6.97;;
16737;SDS011;17906;47.684;10.806;2023-01-29T01:54:47;17.53;;;6.83;;
16737;SDS011;17906;47.684;10.806;2023-01-29T01:57:16;20.97;;;7.57;;
16737;SDS011;17906;47.684;10.806;2023-01-29T01:59:49;24.40;;;8.57;;
16737;SDS011;17906;47.684;10.806;2023-01-29T02:02:21;23.43;;;8.03;;
16737;SDS011;17906;47.684;10.806;2023-01-29T02:05:06;23.53;;;7.90;;
16737;SDS011;17906;47.684;10.806;2023-01-29T02:07:51;24.43;;;8.27;;
16737;SDS011;17906;47.684;10.806;2023-01-29T02:10:38;20.00;;;7.63;;
16737;SDS011;17906;47.684;10.806;2023-01-29T02:13:07;24.33;;;8.50;;
16737;SDS011;17906;47.684;10.806;2023-01-29T02:15:35;26.50;;;8.57;;
16737;SDS011;17906;47.684;10.806;2023-01-29T02:18:01;21.73;;;8.03;;
16737;SDS011;17906;47.684;10.806;2023-01-29T02:20:29;21.40;;;8.23;;
16737;SDS011;17906;47.684;10.806;2023-01-29T02:23:04;20.80;;;7.83;;
16737;SDS011;17906;47.684;10.806;2023-01-29T02:25:48;24.03;;;7.43;;
16737;SDS011;17906;47.684;10.806;2023-01-29T02:28:36;18.37;;;7.60;;
16737;SDS011;17906;47.684;10.806;2023-01-29T02:31:07;16.57;;;6.57;;
16737;SDS011;17906;47.684;10.806;2023-01-29T02:33:45;16.10;;;7.10;;
16737;SDS011;17906;47.684;10.806;2023-01-29T02:36:23;21.83;;;7.43;;
16737;SDS011;17906;47.684;10.806;2023-01-29T02:38:58;21.63;;;7.23;;
16737;SDS011;17906;47.684;10.806;2023-01-29T02:41:30;16.93;;;7.33;;
16737;SDS011;17906;47.684;10.806;2023-01-29T02:44:05;14.57;;;6.43;;
16737;SDS011;17906;47.684;10.806;2023-01-29T02:46:43;20.50;;;7.07;;
16737;SDS011;17906;47.684;10.806;2023-01-29T02:49:19;18.63;;;6.90;;
16737;SDS011;17906;47.684;10.806;2023-01-29T02:51:54;20.07;;;7.07;;
16737;SDS011;17906;47.684;10.806;2023-01-29T02:54:29;21.00;;;7.57;;
16737;SDS011;17906;47.684;10.806;2023-01-29T02:57:02;16.83;;;6.93;;
16737;SDS011;17906;47.684;10.806;2023-01-29T02:59:36;19.43;;;6.63;;
16737;SDS011;17906;47.684;10.806;2023-01-29T03:02:08;22.50;;;7.80;;
16737;SDS011;17906;47.684;10.806;2023-01-29T03:04:41;14.97;;;6.30;;
16737;SDS011;17906;47.684;10.806;2023-01-29T03:07:13;20.30;;;6.27;;
16737;SDS011;17906;47.684;10.806;2023-01-29T03:10:05;15.10;;;6.20;;
16737;SDS011;17906;47.684;10.806;2023-01-29T03:12:37;20.00;;;6.43;;
16737;SDS011;17906;47.684;10.806;2023-01-29T03:15:08;19.33;;;6.13;;
16737;SDS011;17906;47.684;10.806;2023-01-29T03:17:41;15.30;;;6.43;;
16737;SDS011;17906;47.684;10.806;2023-01-29T03:20:14;19.67;;;6.60;;
16737;SDS011;17906;47.684;10.806;2023-01-29T03:22:47;18.73;;;6.43;;
16737;SDS011;17906;47.684;10.806;2023-01-29T03:25:17;13.67;;;5.67;;
16737;SDS011;17906;47.684;10.806;2023-01-29T03:28:03;17.77;;;6.60;;
16737;SDS011;17906;47.684;10.806;2023-01-29T03:30:52;18.77;;;6.90;;
16737;SDS011;17906;47.684;10.806;2023-01-29T03:33:39;20.73;;;6.97;;
16737;SDS011;17906;47.684;10.806;2023-01-29T03:36:11;21.50;;;7.03;;
16737;SDS011;17906;47.684;10.806;2023-01-29T03:38:41;20.67;;;7.47;;
16737;SDS011;17906;47.684;10.806;2023-01-29T03:41:09;23.97;;;8.80;;
16737;SDS011;17906;47.684;10.806;2023-01-29T03:43:44;22.83;;;8.40;;
16737;SDS011;17906;47.684;10.806;2023-01-29T03:46:19;25.87;;;8.80;;
16737;SDS011;17906;47.684;10.806;2023-01-29T03:48:53;22.60;;;8.17;;
16737;SDS011;17906;47.684;10.806;2023-01-29T03:51:26;22.00;;;8.10;;
16737;SDS011;17906;47.684;10.806;2023-01-29T03:53:56;21.20;;;7.83;;
16737;SDS011;17906;47.684;10.806;2023-01-29T03:56:32;21.77;;;7.87;;
16737;SDS011;17906;47.684;10.806;2023-01-29T03:59:14;23.87;;;8.27;;
16737;SDS011;17906;47.684;10.806;2023-01-29T04:01:48;21.63;;;7.97;;
16737;SDS011;17906;47.684;10.806;2023-01-29T04:04:20;24.63;;;9.00;;
16737;SDS011;17906;47.684;10.806;2023-01-29T04:06:50;24.83;;;8.20;;
16737;SDS011;17906;47.684;10.806;2023-01-29T04:09:22;25.03;;;8.37;;
16737;SDS011;17906;47.684;10.806;2023-01-29T04:11:56;28.40;;;8.67;;
16737;SDS011;17906;47.684;10.806;2023-01-29T04:14:27;23.17;;;8.73;;
16737;SDS011;17906;47.684;10.806;2023-01-29T04:16:59;28.23;;;9.20;;
16737;SDS011;17906;47.684;10.806;2023-01-29T04:19:28;25.17;;;8.23;;
16737;SDS011;17906;47.684;10.806;2023-01-29T04:21:58;26.63;;;8.27;;
16737;SDS011;17906;47.684;10.806;2023-01-29T04:24:30;25.33;;;8.83;;
16737;SDS011;17906;47.684;10.806;2023-01-29T04:26:59;24.27;;;8.60;;
16737;SDS011;17906;47.684;10.806;2023-01-29T04:29:44;26.27;;;9.50;;
16737;SDS011;17906;47.684;10.806;2023-01-29T04:32:21;21.90;;;8.37;;
16737;SDS011;17906;47.684;10.806;2023-01-29T04:34:59;32.00;;;9.37;;
16737;SDS011;17906;47.684;10.806;2023-01-29T04:37:34;28.00;;;8.60;;
16737;SDS011;17906;47.684;10.806;2023-01-29T04:40:08;19.40;;;8.20;;
16737;SDS011;17906;47.684;10.806;2023-01-29T04:42:46;21.77;;;8.40;;
16737;SDS011;17906;47.684;10.806;2023-01-29T04:45:19;27.63;;;8.73;;
16737;SDS011;17906;47.684;10.806;2023-01-29T04:47:56;20.17;;;7.60;;
16737;SDS011;17906;47.684;10.806;2023-01-29T04:50:33;20.57;;;8.30;;
16737;SDS011;17906;47.684;10.806;2023-01-29T04:53:05;20.63;;;7.73;;
16737;SDS011;17906;47.684;10.806;2023-01-29T04:55:39;24.13;;;7.93;;
16737;SDS011;17906;47.684;10.806;2023-01-29T04:58:13;22.53;;;7.70;;
16737;SDS011;17906;47.684;10.806;2023-01-29T05:00:47;18.50;;;6.90;;
16737;SDS011;17906;47.684;10.806;2023-01-29T05:03:20;16.67;;;6.37;;
16737;SDS011;17906;47.684;10.806;2023-01-29T05:05:49;16.57;;;6.50;;
16737;SDS011;17906;47.684;10.806;2023-01-29T05:08:17;18.03;;;6.60;;
16737;SDS011;17906;47.684;10.806;2023-01-29T05:10:46;18.67;;;6.67;;
16737;SDS011;17906;47.684;10.806;2023-01-29T05:13:15;14.20;;;5.50;;
16737;SDS011;17906;47.684;10.806;2023-01-29T05:15:46;14.93;;;5.63;;
16737;SDS011;17906;47.684;10.806;2023-01-29T05:18:18;21.10;;;6.63;;
16737;SDS011;17906;47.684;10.806;2023-01-29T05:20:45;16.33;;;5.43;;
16737;SDS011;17906;47.684;10.806;2023-01-29T05:23:14;18.73;;;6.70;;
16737;SDS011;17906;47.684;10.806;2023-01-29T05:25:41;15.93;;;5.27;;
16737;SDS011;17906;47.684;10.806;2023-01-29T05:28:08;16.87;;;5.30;;
16737;SDS011;17906;47.684;10.806;2023-01-29T05:30:40;14.07;;;5.30;;
16737;SDS011;17906;47.684;10.806;2023-01-29T05:33:11;18.23;;;6.33;;
16737;SDS011;17906;47.684;10.806;2023-01-29T05:35:40;13.73;;;4.77;;
16737;SDS011;17906;47.684;10.806;2023-01-29T05:38:08;15.00;;;5.90;;
16737;SDS011;17906;47.684;10.806;2023-01-29T05:40:35;15.67;;;5.40;;
16737;SDS011;17906;47.684;10.806;2023-01-29T05:43:02;17.37;;;5.43;;
16737;SDS011;17906;47.684;10.806;2023-01-29T05:45:28;14.23;;;5.30;;
16737;SDS011;17906;47.684;10.806;2023-01-29T05:47:55;13.43;;;4.17;;
16737;SDS011;17906;47.684;10.806;2023-01-29T05:50:22;11.87;;;4.30;;
16737;SDS011;17906;47.684;10.806;2023-01-29T05:52:55;11.97;;;4.77;;
16737;SDS011;17906;47.684;10.806;2023-01-29T05:55:22;15.00;;;5.47;;
16737;SDS011;17906;47.684;10.806;2023-01-29T05:57:49;13.97;;;5.53;;
16737;SDS011;17906;47.684;10.806;2023-01-29T06:00:16;14.70;;;4.80;;
16737;SDS011;17906;47.684;10.806;2023-01-29T06:02:43;13.80;;;5.00;;
16737;SDS011;17906;47.684;10.806;2023-01-29T06:05:10;16.10;;;5.40;;
16737;SDS011;17906;47.684;10.806;2023-01-29T06:07:37;12.57;;;5.20;;
16737;SDS011;17906;47.684;10.806;2023-01-29T06:10:05;14.13;;;4.23;;
16737;SDS011;17906;47.684;10.806;2023-01-29T06:12:33;13.63;;;5.20;;
16737;SDS011;17906;47.684;10.806;2023-01-29T06:14:59;16.13;;;5.03;;
16737;SDS011;17906;47.684;10.806;2023-01-29T06:17:26;13.37;;;4.50;;
16737;SDS011;17906;47.684;10.806;2023-01-29T06:19:52;15.80;;;4.80;;
16737;SDS011;17906;47.684;10.806;2023-01-29T06:22:19;11.97;;;4.40;;
16737;SDS011;17906;47.684;10.806;2023-01-29T06:24:45;14.70;;;5.00;;
16737;SDS011;17906;47.684;10.806;2023-01-29T06:27:13;14.90;;;5.13;;
16737;SDS011;17906;47.684;10.806;2023-01-29T06:29:40;16.57;;;5.03;;
16737;SDS011;17906;47.684;10.806;2023-01-29T06:32:06;15.37;;;5.10;;
16737;SDS011;17906;47.684;10.806;2023-01-29T06:34:33;14.33;;;5.20;;
16737;SDS011;17906;47.684;10.806;2023-01-29T06:36:59;14.10;;;4.90;;
16737;SDS011;17906;47.684;10.806;2023-01-29T06:39:26;17.53;;;6.47;;
16737;SDS011;17906;47.684;10.806;2023-01-29T06:41:52;14.97;;;5.73;;
16737;SDS011;17906;47.684;10.806;2023-01-29T06:44:20;18.90;;;7.10;;
16737;SDS011;17906;47.684;10.806;2023-01-29T06:46:47;16.57;;;5.70;;
16737;SDS011;17906;47.684;10.806;2023-01-29T06:49:13;16.07;;;5.80;;
16737;SDS011;17906;47.684;10.806;2023-01-29T06:51:40;18.63;;;6.20;;
16737;SDS011;17906;47.684;10.806;2023-01-29T06:54:08;18.17;;;6.20;;
16737;SDS011;17906;47.684;10.806;2023-01-29T06:56:35;18.37;;;6.70;;
16737;SDS011;17906;47.684;10.806;2023-01-29T06:59:01;21.27;;;7.73;;
16737;SDS011;17906;47.684;10.806;2023-01-29T07:01:29;19.60;;;6.43;;
16737;SDS011;17906;47.684;10.806;2023-01-29T07:03:56;13.67;;;5.90;;
16737;SDS011;17906;47.684;10.806;2023-01-29T07:06:26;16.60;;;6.30;;
16737;SDS011;17906;47.684;10.806;2023-01-29T07:08:53;18.13;;;6.30;;
16737;SDS011;17906;47.684;10.806;2023-01-29T07:11:19;17.83;;;7.07;;
16737;SDS011;17906;47.684;10.806;2023-01-29T07:13:46;17.00;;;6.17;;
16737;SDS011;17906;47.684;10.806;2023-01-29T07:16:13;18.23;;;5.83;;
16737;SDS011;17906;47.684;10.806;2023-01-29T07:18:41;17.27;;;6.10;;
16737;SDS011;17906;47.684;10.806;2023-01-29T07:21:07;16.60;;;6.17;;
16737;SDS011;17906;47.684;10.806;2023-01-29T07:23:34;18.70;;;6.37;;
16737;SDS011;17906;47.684;10.806;2023-01-29T07:26:01;14.67;;;6.20;;
16737;SDS011;17906;47.684;10.806;2023-01-29T07:28:28;19.00;;;6.63;;
16737;SDS011;17906;47.684;10.806;2023-01-29T07:30:55;18.90;;;6.60;;
16737;SDS011;17906;47.684;10.806;2023-01-29T07:33:22;15.90;;;6.17;;
16737;SDS011;17906;47.684;10.806;2023-01-29T07:35:50;14.93;;;5.60;;
16737;SDS011;17906;47.684;10.806;2023-01-29T07:38:17;13.17;;;4.87;;
16737;SDS011;17906;47.684;10.806;2023-01-29T07:40:44;10.83;;;4.33;;
16737;SDS011;17906;47.684;10.806;2023-01-29T07:43:11;12.23;;;4.30;;
16737;SDS011;17906;47.684;10.806;2023-01-29T07:45:38;13.67;;;5.57;;
16737;SDS011;17906;47.684;10.806;2023-01-29T07:48:05;13.50;;;5.20;;
16737;SDS011;17906;47.684;10.806;2023-01-29T07:50:35;10.10;;;4.37;;
16737;SDS011;17906;47.684;10.806;2023-01-29T07:53:03;10.60;;;4.20;;
16737;SDS011;17906;47.684;10.806;2023-01-29T07:55:30;11.67;;;6.23;;
16737;SDS011;17906;47.684;10.806;2023-01-29T07:57:58;11.57;;;5.73;;
16737;SDS011;17906;47.684;10.806;2023-01-29T08:00:26;17.07;;;5.63;;
16737;SDS011;17906;47.684;10.806;2023-01-29T08:02:52;9.93;;;5.07;;
16737;SDS011;17906;47.684;10.806;2023-01-29T08:05:19;12.20;;;5.57;;
16737;SDS011;17906;47.684;10.806;2023-01-29T08:07:51;14.30;;;6.47;;
16737;SDS011;17906;47.684;10.806;2023-01-29T08:10:20;15.90;;;7.40;;
16737;SDS011;17906;47.684;10.806;2023-01-29T08:12:52;18.27;;;7.70;;
16737;SDS011;17906;47.684;10.806;2023-01-29T08:15:19;9.47;;;4.67;;
16737;SDS011;17906;47.684;10.806;2023-01-29T08:17:46;13.20;;;4.90;;
16737;SDS011;17906;47.684;10.806;2023-01-29T08:20:12;10.90;;;4.20;;
16737;SDS011;17906;47.684;10.806;2023-01-29T08:22:39;9.33;;;4.37;;
16737;SDS011;17906;47.684;10.806;2023-01-29T08:25:06;9.03;;;4.20;;
16737;SDS011;17906;47.684;10.806;2023-01-29T08:27:34;13.07;;;5.07;;
16737;SDS011;17906;47.684;10.806;2023-01-29T08:30:01;11.97;;;5.30;;
16737;SDS011;17906;47.684;10.806;2023-01-29T08:32:27;10.57;;;4.73;;
16737;SDS011;17906;47.684;10.806;2023-01-29T08:34:54;10.70;;;4.73;;
16737;SDS011;17906;47.684;10.806;2023-01-29T08:37:20;11.47;;;4.77;;
16737;SDS011;17906;47.684;10.806;2023-01-29T08:39:47;11.97;;;5.13;;
16737;SDS011;17906;47.684;10.806;2023-01-29T08:42:14;11.93;;;4.77;;
16737;SDS011;17906;47.684;10.806;2023-01-29T08:44:41;11.47;;;5.53;;
16737;SDS011;17906;47.684;10.806;2023-01-29T08:47:08;10.80;;;4.87;;
16737;SDS011;17906;47.684;10.806;2023-01-29T08:49:35;14.23;;;5.63;;
16737;SDS011;17906;47.684;10.806;2023-01-29T08:52:01;13.40;;;5.33;;
16737;SDS011;17906;47.684;10.806;2023-01-29T08:54:28;13.07;;;5.33;;
16737;SDS011;17906;47.684;10.806;2023-01-29T08:56:55;11.40;;;5.07;;
16737;SDS011;17906;47.684;10.806;2023-01-29T08:59:21;11.40;;;5.03;;
16737;SDS011;17906;47.684;10.806;2023-01-29T09:01:49;10.03;;;4.30;;
16737;SDS011;17906;47.684;10.806;2023-01-29T09:04:16;10.33;;;4.83;;
16737;SDS011;17906;47.684;10.806;2023-01-29T09:06:42;12.10;;;4.90;;
16737;SDS011;17906;47.684;10.806;2023-01-29T09:09:09;12.00;;;5.53;;
16737;SDS011;17906;47.684;10.806;2023-01-29T09:11:36;12.77;;;5.53;;
16737;SDS011;17906;47.684;10.806;2023-01-29T09:14:04;11.20;;;5.40;;
16737;SDS011;17906;47.684;10.806;2023-01-29T09:16:31;15.77;;;5.73;;
16737;SDS011;17906;47.684;10.806;2023-01-29T09:18:59;12.03;;;5.37;;
16737;SDS011;17906;47.684;10.806;2023-01-29T09:21:25;12.57;;;5.87;;
16737;SDS011;17906;47.684;10.806;2023-01-29T09:23:52;9.33;;;4.90;;
16737;SDS011;17906;47.684;10.806;2023-01-29T09:26:18;17.03;;;6.23;;
16737;SDS011;17906;47.684;10.806;2023-01-29T09:28:45;12.87;;;5.63;;
16737;SDS011;17906;47.684;10.806;2023-01-29T09:31:12;12.70;;;5.43;;
16737;SDS011;17906;47.684;10.806;2023-01-29T09:33:38;13.43;;;6.10;;
16737;SDS011;17906;47.684;10.806;2023-01-29T09:36:07;13.30;;;6.13;;
16737;SDS011;17906;47.684;10.806;2023-01-29T09:38:34;38.97;;;17.33;;
16737;SDS011;17906;47.684;10.806;2023-01-29T09:41:03;31.60;;;13.67;;
16737;SDS011;17906;47.684;10.806;2023-01-29T09:43:41;21.23;;;10.37;;
16737;SDS011;17906;47.684;10.806;2023-01-29T09:46:16;13.20;;;7.20;;
16737;SDS011;17906;47.684;10.806;2023-01-29T09:48:46;13.47;;;6.60;;
16737;SDS011;17906;47.684;10.806;2023-01-29T09:51:21;13.03;;;6.57;;
16737;SDS011;17906;47.684;10.806;2023-01-29T09:53:53;12.73;;;6.83;;
16737;SDS011;17906;47.684;10.806;2023-01-29T09:56:23;15.90;;;7.50;;
16737;SDS011;17906;47.684;10.806;2023-01-29T09:58:53;12.47;;;6.97;;
16737;SDS011;17906;47.684;10.806;2023-01-29T10:01:25;14.83;;;7.17;;
16737;SDS011;17906;47.684;10.806;2023-01-29T10:04:01;13.30;;;6.77;;
16737;SDS011;17906;47.684;10.806;2023-01-29T10:06:54;15.13;;;7.17;;
16737;SDS011;17906;47.684;10.806;2023-01-29T10:09:48;14.43;;;7.00;;
16737;SDS011;17906;47.684;10.806;2023-01-29T10:12:31;14.57;;;7.50;;
16737;SDS011;17906;47.684;10.806;2023-01-29T10:15:20;12.97;;;6.83;;
16737;SDS011;17906;47.684;10.806;2023-01-29T10:17:59;13.63;;;6.87;;
16737;SDS011;17906;47.684;10.806;2023-01-29T10:20:40;15.90;;;7.50;;
16737;SDS011;17906;47.684;10.806;2023-01-29T10:23:17;16.77;;;8.20;;
16737;SDS011;17906;47.684;10.806;2023-01-29T10:25:49;14.53;;;7.20;;
16737;SDS011;17906;47.684;10.806;2023-01-29T10:28:17;13.47;;;6.90;;
16737;SDS011;17906;47.684;10.806;2023-01-29T10:30:48;14.03;;;7.10;;
16737;SDS011;17906;47.684;10.806;2023-01-29T10:33:17;13.00;;;6.77;;
16737;SDS011;17906;47.684;10.806;2023-01-29T10:35:50;16.17;;;7.17;;
16737;SDS011;17906;47.684;10.806;2023-01-29T10:38:24;15.33;;;7.90;;
16737;SDS011;17906;47.684;10.806;2023-01-29T10:41:02;14.50;;;6.83;;
16737;SDS011;17906;47.684;10.806;2023-01-29T10:43:44;15.00;;;6.53;;
16737;SDS011;17906;47.684;10.806;2023-01-29T10:46:20;17.67;;;7.13;;
16737;SDS011;17906;47.684;10.806;2023-01-29T10:48:57;14.93;;;6.70;;
16737;SDS011;17906;47.684;10.806;2023-01-29T10:51:37;15.90;;;7.27;;
16737;SDS011;17906;47.684;10.806;2023-01-29T10:54:22;16.20;;;7.40;;
16737;SDS011;17906;47.684;10.806;2023-01-29T10:57:00;16.20;;;7.00;;
16737;SDS011;17906;47.684;10.806;2023-01-29T10:59:39;15.13;;;6.83;;
16737;SDS011;17906;47.684;10.806;2023-01-29T11:02:18;17.00;;;7.50;;
16737;SDS011;17906;47.684;10.806;2023-01-29T11:04:46;13.37;;;6.40;;
16737;SDS011;17906;47.684;10.806;2023-01-29T11:07:13;15.73;;;8.03;;
16737;SDS011;17906;47.684;10.806;2023-01-29T11:09:45;14.60;;;7.50;;
16737;SDS011;17906;47.684;10.806;2023-01-29T11:12:19;14.23;;;6.97;;
16737;SDS011;17906;47.684;10.806;2023-01-29T11:14:52;12.80;;;6.30;;
16737;SDS011;17906;47.684;10.806;2023-01-29T11:17:24;10.80;;;5.13;;
16737;SDS011;17906;47.684;10.806;2023-01-29T11:19:52;9.73;;;5.00;;
16737;SDS011;17906;47.684;10.806;2023-01-29T11:22:20;12.40;;;5.93;;
16737;SDS011;17906;47.684;10.806;2023-01-29T11:25:06;11.47;;;5.10;;
16737;SDS011;17906;47.684;10.806;2023-01-29T11:27:42;11.17;;;5.17;;
16737;SDS011;17906;47.684;10.806;2023-01-29T11:30:14;11.93;;;5.43;;
16737;SDS011;17906;47.684;10.806;2023-01-29T11:32:48;11.77;;;5.67;;
16737;SDS011;17906;47.684;10.806;2023-01-29T11:35:19;12.40;;;5.23;;
16737;SDS011;17906;47.684;10.806;2023-01-29T11:37:47;15.23;;;6.70;;
16737;SDS011;17906;47.684;10.806;2023-01-29T11:43:17;11.63;;;5.67;;
16737;SDS011;17906;47.684;10.806;2023-01-29T11:45:45;12.03;;;5.97;;
16737;SDS011;17906;47.684;10.806;2023-01-29T11:48:13;12.57;;;5.53;;
16737;SDS011;17906;47.684;10.806;2023-01-29T11:50:41;13.20;;;5.60;;
16737;SDS011;17906;47.684;10.806;2023-01-29T11:53:22;10.07;;;5.07;;
16737;SDS011;17906;47.684;10.806;2023-01-29T11:55:59;11.43;;;5.30;;
16737;SDS011;17906;47.684;10.806;2023-01-29T11:58:27;11.03;;;4.83;;
16737;SDS011;17906;47.684;10.806;2023-01-29T12:00:56;12.90;;;5.90;;
16737;SDS011;17906;47.684;10.806;2023-01-29T12:03:28;15.27;;;5.53;;
16737;SDS011;17906;47.684;10.806;2023-01-29T12:05:59;15.23;;;6.13;;
16737;SDS011;17906;47.684;10.806;2023-01-29T12:08:30;13.33;;;6.27;;
16737;SDS011;17906;47.684;10.806;2023-01-29T12:11:12;16.23;;;8.47;;
16737;SDS011;17906;47.684;10.806;2023-01-29T12:13:50;14.30;;;6.03;;
16737;SDS011;17906;47.684;10.806;2023-01-29T12:16:21;12.90;;;6.03;;
16737;SDS011;17906;47.684;10.806;2023-01-29T12:18:54;14.33;;;6.53;;
16737;SDS011;17906;47.684;10.806;2023-01-29T12:21:26;11.93;;;5.57;;
16737;SDS011;17906;47.684;10.806;2023-01-29T12:24:02;13.53;;;5.90;;
16737;SDS011;17906;47.684;10.806;2023-01-29T12:26:38;15.00;;;5.63;;
16737;SDS011;17906;47.684;10.806;2023-01-29T12:29:18;13.60;;;5.90;;
16737;SDS011;17906;47.684;10.806;2023-01-29T12:31:54;12.10;;;5.60;;
16737;SDS011;17906;47.684;10.806;2023-01-29T12:34:32;12.17;;;5.93;;
16737;SDS011;17906;47.684;10.806;2023-01-29T12:37:10;17.53;;;6.87;;
16737;SDS011;17906;47.684;10.806;2023-01-29T12:39:44;12.27;;;5.73;;
16737;SDS011;17906;47.684;10.806;2023-01-29T12:42:14;14.13;;;6.27;;
16737;SDS011;17906;47.684;10.806;2023-01-29T12:44:44;13.13;;;6.17;;
16737;SDS011;17906;47.684;10.806;2023-01-29T12:47:15;11.53;;;5.97;;
16737;SDS011;17906;47.684;10.806;2023-01-29T12:49:47;11.93;;;5.57;;
16737;SDS011;17906;47.684;10.806;2023-01-29T12:52:18;14.17;;;6.27;;
16737;SDS011;17906;47.684;10.806;2023-01-29T12:54:52;15.00;;;6.53;;
16737;SDS011;17906;47.684;10.806;2023-01-29T12:57:25;12.97;;;6.10;;
16737;SDS011;17906;47.684;10.806;2023-01-29T13:00:02;13.43;;;5.97;;
16737;SDS011;17906;47.684;10.806;2023-01-29T13:02:34;13.17;;;6.03;;
16737;SDS011;17906;47.684;10.806;2023-01-29T13:05:06;12.47;;;5.77;;
16737;SDS011;17906;47.684;10.806;2023-01-29T13:07:45;15.93;;;6.20;;
16737;SDS011;17906;47.684;10.806;2023-01-29T13:10:17;15.80;;;6.20;;
16737;SDS011;17906;47.684;10.806;2023-01-29T13:12:50;13.23;;;6.17;;
16737;SDS011;17906;47.684;10.806;2023-01-29T13:15:21;14.23;;;6.40;;
16737;SDS011;17906;47.684;10.806;2023-01-29T13:17:53;15.30;;;7.47;;
16737;SDS011;17906;47.684;10.806;2023-01-29T13:20:25;14.37;;;6.83;;
16737;SDS011;17906;47.684;10.806;2023-01-29T13:22:54;17.00;;;7.30;;
16737;SDS011;17906;47.684;10.806;2023-01-29T13:25:24;13.60;;;6.23;;
16737;SDS011;17906;47.684;10.806;2023-01-29T13:27:52;14.80;;;6.43;;
16737;SDS011;17906;47.684;10.806;2023-01-29T13:30:23;15.10;;;6.33;;
16737;SDS011;17906;47.684;10.806;2023-01-29T13:32:53;15.20;;;6.77;;
16737;SDS011;17906;47.684;10.806;2023-01-29T13:35:32;13.87;;;6.53;;
16737;SDS011;17906;47.684;10.806;2023-01-29T13:38:04;15.00;;;6.97;;
16737;SDS011;17906;47.684;10.806;2023-01-29T13:40:47;14.20;;;6.97;;
16737;SDS011;17906;47.684;10.806;2023-01-29T13:43:18;16.90;;;6.77;;
16737;SDS011;17906;47.684;10.806;2023-01-29T13:45:46;15.73;;;6.87;;
16737;SDS011;17906;47.684;10.806;2023-01-29T13:48:19;13.30;;;6.13;;
16737;SDS011;17906;47.684;10.806;2023-01-29T13:50:50;16.40;;;7.03;;
16737;SDS011;17906;47.684;10.806;2023-01-29T13:53:20;15.07;;;7.07;;
16737;SDS011;17906;47.684;10.806;2023-01-29T13:55:49;14.93;;;6.23;;
16737;SDS011;17906;47.684;10.806;2023-01-29T13:58:16;15.57;;;6.53;;
16737;SDS011;17906;47.684;10.806;2023-01-29T14:01:05;15.37;;;6.87;;
16737;SDS011;17906;47.684;10.806;2023-01-29T14:03:32;17.13;;;7.90;;
16737;SDS011;17906;47.684;10.806;2023-01-29T14:06:34;18.23;;;7.73;;
16737;SDS011;17906;47.684;10.806;2023-01-29T14:12:39;18.40;;;7.80;;
16737;SDS011;17906;47.684;10.806;2023-01-29T14:15:19;17.33;;;7.67;;
16737;SDS011;17906;47.684;10.806;2023-01-29T14:17:57;16.53;;;7.10;;
16737;SDS011;17906;47.684;10.806;2023-01-29T14:20:32;16.57;;;7.40;;
16737;SDS011;17906;47.684;10.806;2023-01-29T14:23:02;18.97;;;7.53;;
16737;SDS011;17906;47.684;10.806;2023-01-29T14:25:31;19.53;;;7.97;;
16737;SDS011;17906;47.684;10.806;2023-01-29T14:28:00;18.33;;;7.70;;
16737;SDS011;17906;47.684;10.806;2023-01-29T14:30:30;18.80;;;8.40;;
16737;SDS011;17906;47.684;10.806;2023-01-29T14:32:59;19.17;;;7.73;;
16737;SDS011;17906;47.684;10.806;2023-01-29T14:35:29;17.17;;;6.83;;
16737;SDS011;17906;47.684;10.806;2023-01-29T14:37:59;16.63;;;7.43;;
16737;SDS011;17906;47.684;10.806;2023-01-29T14:40:29;17.63;;;7.50;;
16737;SDS011;17906;47.684;10.806;2023-01-29T14:43:02;20.17;;;8.63;;
16737;SDS011;17906;47.684;10.806;2023-01-29T14:45:32;17.37;;;7.87;;
16737;SDS011;17906;47.684;10.806;2023-01-29T14:48:37;16.30;;;7.57;;
16737;SDS011;17906;47.684;10.806;2023-01-29T14:51:06;19.30;;;8.57;;